Terminal Aerodrome Forecast
Issued by NWS

Home | Current Version | Previous Version | Text Only | Print | Product List | Glossary On
Versions: 1 2 3 4 5 6 7 8 9 10 11 12
000
FTUS45 KRIW 211100
TAFCPR
TAF
KCPR 211123Z 2112/2212 VRB05KT P6SM BKN070
     FM211600 10007KT P6SM FEW080 BKN250
     FM212000 14007KT P6SM SCT090
     FM220800 20008KT P6SM SCT100 BKN250=

USA.gov is the U.S. government's official web portal to all federal, state and local government web resources and services.